Time;durP1;ratioP1;P1;durP2;ratioP2;P2;SDS_P1;SDS_P2;PMS_P1;PMS_P2;Temp;Humidity;BMP_temperature;BMP_pressure;BME280_temperature;BME280_humidity;BME280_pressure;Samples;Min_cycle;Max_cycle;Signal;HPM_P1;HPM_P2
2023/04/23 00:00:24;;;;;;;10.33;9.30;;;16.30;64.50;;;;;;5033091;28;20497;-50
2023/04/23 00:02:53;;;;;;;13.53;9.60;;;16.40;64.90;;;;;;5032026;28;20457;-49
2023/04/23 00:05:20;;;;;;;10.30;9.20;;;16.30;65.00;;;;;;5033535;28;20439;-50
2023/04/23 00:07:47;;;;;;;10.90;9.80;;;16.40;65.10;;;;;;5033434;28;20451;-50
2023/04/23 00:10:15;;;;;;;11.80;9.07;;;16.60;65.50;;;;;;5033035;28;20416;-50
2023/04/23 00:12:43;;;;;;;10.60;9.53;;;16.30;65.40;;;;;;5033351;28;20412;-50
2023/04/23 00:15:11;;;;;;;11.47;10.27;;;16.30;65.70;;;;;;5033103;28;20489;-50
2023/04/23 00:17:38;;;;;;;13.13;9.60;;;16.40;65.80;;;;;;5033026;28;20448;-50
2023/04/23 00:20:06;;;;;;;12.10;9.67;;;16.60;66.10;;;;;;5032452;28;20423;-49
2023/04/23 00:22:33;;;;;;;13.80;9.57;;;16.40;66.00;;;;;;5033126;28;20431;-49
2023/04/23 00:24:59;;;;;;;13.40;9.77;;;16.20;65.80;;;;;;5033294;28;20447;-49
2023/04/23 00:27:26;;;;;;;10.97;9.80;;;16.00;65.90;;;;;;5015079;28;20449;-51
2023/04/23 00:29:54;;;;;;;10.83;9.50;;;16.50;66.70;;;;;;5031332;28;20490;-49
2023/04/23 00:32:21;;;;;;;12.57;11.03;;;16.20;66.30;;;;;;5032964;28;20444;-49
2023/04/23 00:34:48;;;;;;;16.23;10.03;;;16.50;66.80;;;;;;5032608;28;20466;-50
2023/04/23 00:37:15;;;;;;;10.80;9.80;;;16.30;66.70;;;;;;5033322;28;20783;-50
2023/04/23 00:39:42;;;;;;;12.37;9.43;;;16.00;66.40;;;;;;5032484;28;20444;-50
2023/04/23 00:42:11;;;;;;;10.30;9.23;;;15.90;66.30;;;;;;5015021;28;20444;-49
2023/04/23 00:44:38;;;;;;;11.10;10.10;;;16.20;66.70;;;;;;5032698;28;20467;-48
2023/04/23 00:47:07;;;;;;;12.60;10.33;;;16.40;67.00;;;;;;5031813;28;20444;-50
2023/04/23 00:49:33;;;;;;;11.33;9.50;;;16.20;66.80;;;;;;5014812;28;20458;-49
2023/04/23 00:52:00;;;;;;;10.77;9.27;;;16.50;67.20;;;;;;5032629;28;20417;-49
2023/04/23 00:54:27;;;;;;;10.27;9.10;;;16.50;67.40;;;;;;5015049;28;20511;-49
2023/04/23 00:56:56;;;;;;;11.03;9.23;;;16.10;66.90;;;;;;5032772;28;20428;-50
2023/04/23 00:59:24;;;;;;;10.83;9.83;;;16.50;67.30;;;;;;5032266;28;20449;-48
2023/04/23 01:01:51;;;;;;;10.13;9.07;;;16.50;67.50;;;;;;5014735;28;20456;-49
2023/04/23 01:04:21;;;;;;;10.67;9.40;;;16.20;67.10;;;;;;5014983;28;20441;-47
2023/04/23 01:06:48;;;;;;;10.90;9.80;;;16.50;67.60;;;;;;5014782;28;20982;-49
2023/04/23 01:09:17;;;;;;;10.77;9.60;;;16.50;67.70;;;;;;5032438;28;20432;-49
2023/04/23 01:11:44;;;;;;;10.93;8.77;;;16.50;68.00;;;;;;5014809;28;20497;-49
2023/04/23 01:14:11;;;;;;;11.03;9.80;;;16.20;67.70;;;;;;5014926;28;20545;-49
2023/04/23 01:16:38;;;;;;;10.43;9.30;;;16.50;68.10;;;;;;5015952;28;20464;-49
2023/04/23 01:19:06;;;;;;;12.90;9.73;;;16.20;67.90;;;;;;5033419;28;20415;-49
2023/04/23 01:21:35;;;;;;;11.17;9.97;;;16.40;68.20;;;;;;5032657;28;20512;-50
2023/04/23 01:24:04;;;;;;;11.60;10.07;;;16.40;68.20;;;;;;5015605;28;20467;-49
2023/04/23 01:26:31;;;;;;;11.10;9.93;;;16.30;68.30;;;;;;5033257;28;20449;-50
2023/04/23 01:28:59;;;;;;;12.43;9.93;;;16.30;68.30;;;;;;5033390;28;20468;-50
2023/04/23 01:31:27;;;;;;;14.10;10.57;;;16.20;68.30;;;;;;5014783;28;20846;-49
2023/04/23 01:33:55;;;;;;;11.50;10.43;;;16.00;68.30;;;;;;5032628;28;20475;-49
2023/04/23 01:36:22;;;;;;;11.90;10.77;;;16.20;68.70;;;;;;5014945;28;20878;-49
2023/04/23 01:38:51;;;;;;;11.60;9.37;;;16.30;69.00;;;;;;5014228;28;20456;-48
2023/04/23 01:41:19;;;;;;;11.17;8.87;;;15.90;68.70;;;;;;5032177;28;20482;-49
2023/04/23 01:43:46;;;;;;;11.17;9.30;;;16.30;69.30;;;;;;5014392;28;20448;-49
2023/04/23 01:46:13;;;;;;;10.10;9.10;;;16.20;69.20;;;;;;5031943;28;20431;-48
2023/04/23 01:48:40;;;;;;;12.33;9.93;;;16.30;69.40;;;;;;5031782;28;20815;-50
2023/04/23 01:51:07;;;;;;;11.70;10.50;;;16.30;69.50;;;;;;5032775;28;20432;-48
2023/04/23 01:53:34;;;;;;;11.03;10.00;;;16.50;70.00;;;;;;5032282;28;20432;-48
2023/04/23 01:56:02;;;;;;;11.07;9.50;;;16.60;70.30;;;;;;5014591;28;20564;-48
2023/04/23 01:58:30;;;;;;;11.83;10.57;;;16.40;70.30;;;;;;5015164;28;20549;-49
2023/04/23 02:00:57;;;;;;;11.60;9.67;;;16.40;70.50;;;;;;5036440;28;20424;-48
2023/04/23 02:03:24;;;;;;;10.60;9.60;;;16.30;70.50;;;;;;5036840;28;20416;-51
2023/04/23 02:05:53;;;;;;;16.63;10.13;;;16.40;71.10;;;;;;5036280;28;20439;-49
2023/04/23 02:08:20;;;;;;;10.27;9.27;;;16.40;71.20;;;;;;5035614;28;20470;-48
2023/04/23 02:10:47;;;;;;;11.07;9.97;;;16.10;71.90;;;;;;5035824;28;20436;-48
2023/04/23 02:13:13;;;;;;;11.37;10.37;;;16.10;73.20;;;;;;5035809;28;20520;-47
2023/04/23 02:15:42;;;;;;;11.73;10.50;;;16.40;74.20;;;;;;5035470;28;20547;-48
2023/04/23 02:18:09;;;;;;;11.57;10.30;;;16.20;74.90;;;;;;5035072;28;20910;-49
2023/04/23 02:20:39;;;;;;;11.77;10.57;;;16.50;78.20;;;;;;5035576;28;20411;-48
2023/04/23 02:23:06;;;;;;;14.33;10.77;;;16.30;79.40;;;;;;5017637;28;20866;-48
2023/04/23 02:25:33;;;;;;;13.43;12.07;;;16.20;82.00;;;;;;5017548;28;20463;-48
2023/04/23 02:28:04;;;;;;;12.70;10.90;;;16.20;82.60;;;;;;5017738;28;20526;-49
2023/04/23 02:30:30;;;;;;;12.67;11.37;;;16.20;85.90;;;;;;5017256;28;20512;-49
2023/04/23 02:32:58;;;;;;;13.87;12.20;;;16.00;86.30;;;;;;5035203;28;20432;-49
2023/04/23 02:35:25;;;;;;;14.00;12.70;;;16.10;88.30;;;;;;5017447;28;20985;-48
2023/04/23 02:37:53;;;;;;;13.23;11.90;;;15.70;89.00;;;;;;5035084;28;20444;-50
2023/04/23 02:40:19;;;;;;;14.63;10.80;;;15.90;90.40;;;;;;5033471;28;20455;-48
2023/04/23 02:42:46;;;;;;;13.87;12.57;;;16.20;92.00;;;;;;5035105;28;20430;-48
2023/04/23 02:45:13;;;;;;;14.50;10.60;;;15.40;91.40;;;;;;5034854;28;20539;-48
2023/04/23 02:47:39;;;;;;;13.63;12.23;;;16.10;92.50;;;;;;5017140;28;20426;-48
2023/04/23 02:50:09;;;;;;;15.77;13.80;;;15.90;93.00;;;;;;5016758;28;20454;-50
2023/04/23 02:52:36;;;;;;;13.47;12.20;;;15.80;93.40;;;;;;5034972;28;20987;-49
2023/04/23 02:55:04;;;;;;;12.63;11.40;;;15.60;93.60;;;;;;5016998;28;20908;-49
2023/04/23 02:57:30;;;;;;;15.70;13.57;;;16.00;94.30;;;;;;5016984;28;20453;-48
2023/04/23 02:59:57;;;;;;;15.43;14.03;;;15.80;94.40;;;;;;5034408;28;20528;-48
2023/04/23 03:02:30;;;;;;;14.33;12.83;;;15.80;95.40;;;;;;5017029;28;20449;-48
2023/04/23 03:04:57;;;;;;;14.50;13.20;;;15.90;96.40;;;;;;5016584;28;20487;-48
2023/04/23 03:07:25;;;;;;;14.47;13.03;;;15.40;96.60;;;;;;5016843;28;20454;-49
2023/04/23 03:09:51;;;;;;;14.30;12.77;;;16.00;97.30;;;;;;5015728;28;20488;-49
2023/04/23 03:12:18;;;;;;;14.10;12.70;;;15.20;97.40;;;;;;5016565;28;20435;-49
2023/04/23 03:14:45;;;;;;;14.83;13.60;;;15.70;98.20;;;;;;5016664;28;20514;-49
2023/04/23 03:17:11;;;;;;;16.80;15.20;;;15.60;98.80;;;;;;5034546;28;20507;-49
2023/04/23 03:19:38;;;;;;;14.60;13.20;;;15.60;99.20;;;;;;5016551;28;20888;-50
2023/04/23 03:22:05;;;;;;;20.07;18.27;;;15.80;99.80;;;;;;5016653;28;20447;-47
2023/04/23 03:24:34;;;;;;;21.27;19.03;;;15.50;99.90;;;;;;5016370;28;20479;-49
2023/04/23 03:27:01;;;;;;;17.60;15.73;;;15.50;99.90;;;;;;5016636;28;20425;-49
2023/04/23 03:29:28;;;;;;;15.63;13.77;;;15.30;99.90;;;;;;5033887;28;20440;-48
2023/04/23 03:31:55;;;;;;;15.53;13.50;;;15.80;99.90;;;;;;5016252;28;20444;-48
2023/04/23 03:34:22;;;;;;;13.20;11.80;;;15.60;99.90;;;;;;5016160;28;20630;-48
2023/04/23 03:36:49;;;;;;;15.10;12.07;;;15.60;99.90;;;;;;5016107;28;20445;-49
2023/04/23 03:39:17;;;;;;;13.70;10.97;;;15.90;99.90;;;;;;5015981;28;20486;-49
2023/04/23 03:41:50;;;;;;;11.90;10.70;;;16.00;99.90;;;;;;5016246;28;20443;-49
2023/04/23 03:44:20;;;;;;;13.10;11.80;;;15.70;99.90;;;;;;5016172;28;20476;-48
2023/04/23 03:46:47;;;;;;;12.27;11.03;;;15.80;99.90;;;;;;5016025;28;20535;-48
2023/04/23 03:49:16;;;;;;;12.80;11.47;;;15.80;99.90;;;;;;5015766;28;21032;-48
2023/04/23 03:51:42;;;;;;;12.53;11.23;;;15.60;99.90;;;;;;5016555;28;20474;-48
2023/04/23 03:54:09;;;;;;;14.23;12.73;;;15.90;99.90;;;;;;5016260;28;20508;-48
2023/04/23 03:56:40;;;;;;;12.63;11.43;;;16.20;99.90;;;;;;5016006;28;20422;-48
2023/04/23 03:59:18;;;;;;;13.83;12.53;;;15.70;99.90;;;;;;5015588;28;20431;-48
2023/04/23 04:01:47;;;;;;;14.23;13.07;;;16.00;99.90;;;;;;5015695;28;20455;-49
2023/04/23 04:04:14;;;;;;;13.43;12.23;;;15.90;99.90;;;;;;5015696;28;20824;-48
2023/04/23 04:06:41;;;;;;;13.23;11.53;;;15.90;99.90;;;;;;5015715;28;20422;-48
2023/04/23 04:09:08;;;;;;;14.83;12.47;;;16.00;99.90;;;;;;5033377;28;20440;-49
2023/04/23 04:11:35;;;;;;;13.17;11.87;;;16.00;99.90;;;;;;5033517;28;20786;-48
2023/04/23 04:14:02;;;;;;;14.47;12.97;;;15.70;99.90;;;;;;5015667;28;20457;-48
2023/04/23 04:16:30;;;;;;;15.87;14.00;;;15.40;99.90;;;;;;5033354;28;20875;-48
2023/04/23 04:18:57;;;;;;;13.63;12.40;;;16.00;99.90;;;;;;5032975;28;20416;-48
2023/04/23 04:21:23;;;;;;;14.17;12.90;;;15.80;99.90;;;;;;5033874;28;20440;-48
2023/04/23 04:23:50;;;;;;;13.57;12.27;;;15.80;99.90;;;;;;5033344;28;20792;-48
2023/04/23 04:26:17;;;;;;;12.63;11.50;;;15.80;99.90;;;;;;5033483;28;20527;-48
2023/04/23 04:28:44;;;;;;;13.83;12.60;;;15.80;99.90;;;;;;5033005;28;20471;-48
2023/04/23 04:31:11;;;;;;;13.13;11.83;;;15.50;99.90;;;;;;5033267;28;20817;-48
2023/04/23 04:33:39;;;;;;;14.83;12.40;;;15.90;99.90;;;;;;5033100;28;20936;-49
2023/04/23 04:36:07;;;;;;;12.70;11.40;;;15.20;99.90;;;;;;5033130;28;21067;-49
2023/04/23 04:38:36;;;;;;;11.90;10.70;;;15.70;99.90;;;;;;5032648;28;20415;-48
2023/04/23 04:41:03;;;;;;;11.60;10.40;;;15.90;99.90;;;;;;5032801;28;20473;-49
2023/04/23 04:43:31;;;;;;;11.83;10.60;;;15.80;99.90;;;;;;5032834;28;20408;-49
2023/04/23 04:45:58;;;;;;;10.30;9.23;;;15.70;99.90;;;;;;5032684;28;20458;-49
2023/04/23 04:48:24;;;;;;;9.70;8.43;;;15.70;99.90;;;;;;5032285;28;20849;-49
2023/04/23 04:50:53;;;;;;;8.90;8.03;;;16.00;99.90;;;;;;5032712;28;20817;-49
2023/04/23 04:53:19;;;;;;;9.50;8.60;;;15.80;99.90;;;;;;5032547;28;20439;-49
2023/04/23 04:55:46;;;;;;;8.77;7.73;;;16.00;99.90;;;;;;5032389;28;20488;-49
2023/04/23 04:58:13;;;;;;;9.50;8.27;;;16.20;99.90;;;;;;5032283;28;20531;-48
2023/04/23 05:00:39;;;;;;;9.17;8.00;;;16.10;99.90;;;;;;5032367;28;20433;-48
2023/04/23 05:03:06;;;;;;;11.47;8.60;;;16.20;99.90;;;;;;5032445;28;20438;-49
2023/04/23 05:05:33;;;;;;;9.77;8.07;;;16.40;99.90;;;;;;5014433;28;20577;-49
2023/04/23 05:08:01;;;;;;;11.63;7.80;;;16.20;99.90;;;;;;5032310;28;20921;-49
2023/04/23 05:10:28;;;;;;;11.03;8.53;;;16.50;99.90;;;;;;5032114;28;20510;-49
2023/04/23 05:12:56;;;;;;;8.27;7.57;;;16.30;99.90;;;;;;5032359;28;20515;-49
2023/04/23 05:15:23;;;;;;;10.03;7.83;;;16.50;99.90;;;;;;5031963;28;20485;-49
2023/04/23 05:17:52;;;;;;;11.27;7.50;;;16.70;99.90;;;;;;5032224;28;20945;-49
2023/04/23 05:20:19;;;;;;;8.70;7.73;;;16.70;99.90;;;;;;5031955;28;20445;-49
2023/04/23 05:22:45;;;;;;;8.10;7.03;;;16.40;99.90;;;;;;5032505;28;20437;-48
2023/04/23 05:25:13;;;;;;;12.07;7.73;;;16.30;99.90;;;;;;5014202;28;20470;-49
2023/04/23 05:27:40;;;;;;;10.53;8.00;;;16.40;99.90;;;;;;5032259;28;20929;-50
2023/04/23 05:30:09;;;;;;;9.03;7.30;;;16.70;99.90;;;;;;5031686;28;20439;-49
2023/04/23 05:32:37;;;;;;;8.37;6.80;;;16.80;99.90;;;;;;5031937;28;20407;-49
2023/04/23 05:35:04;;;;;;;8.10;5.93;;;16.30;99.90;;;;;;5031621;28;20447;-49
2023/04/23 05:37:31;;;;;;;8.60;7.70;;;16.80;99.90;;;;;;5031875;28;20465;-49
2023/04/23 05:39:58;;;;;;;10.70;7.50;;;17.10;99.90;;;;;;5031408;28;20444;-49
2023/04/23 05:42:26;;;;;;;7.70;6.87;;;16.80;99.90;;;;;;5031865;28;20438;-49
2023/04/23 05:44:52;;;;;;;8.27;7.50;;;17.30;99.90;;;;;;5031757;28;20439;-48
2023/04/23 05:47:20;;;;;;;10.00;8.60;;;17.00;99.90;;;;;;5031783;28;20432;-49
2023/04/23 05:49:46;;;;;;;7.40;6.70;;;17.00;99.90;;;;;;5031828;28;20450;-49
2023/04/23 05:52:13;;;;;;;7.27;6.50;;;16.80;99.90;;;;;;5032567;28;20440;-49
2023/04/23 05:54:39;;;;;;;7.83;7.07;;;16.70;99.90;;;;;;5032474;28;20950;-50
2023/04/23 05:57:06;;;;;;;7.77;6.97;;;16.80;99.90;;;;;;5032594;28;20412;-49
2023/04/23 05:59:34;;;;;;;7.47;6.77;;;17.00;99.90;;;;;;5031938;28;20443;-49
2023/04/23 06:02:01;;;;;;;7.30;6.60;;;16.40;99.90;;;;;;5015146;28;20936;-48
2023/04/23 06:04:28;;;;;;;7.17;6.47;;;16.50;99.90;;;;;;5032103;28;20477;-48
2023/04/23 06:06:55;;;;;;;6.90;6.30;;;16.90;99.90;;;;;;5031687;28;20425;-48
2023/04/23 06:09:21;;;;;;;8.67;6.30;;;16.70;99.90;;;;;;5031460;28;20448;-49
2023/04/23 06:11:49;;;;;;;7.43;6.07;;;17.20;99.90;;;;;;5031752;28;20434;-48
2023/04/23 06:14:16;;;;;;;7.73;6.47;;;16.90;99.90;;;;;;5031446;28;20466;-50
2023/04/23 06:16:44;;;;;;;7.60;6.30;;;17.20;99.90;;;;;;5031503;28;20486;-48
2023/04/23 06:19:11;;;;;;;8.00;5.90;;;17.60;99.90;;;;;;5030995;28;20435;-49
2023/04/23 06:21:37;;;;;;;6.60;5.90;;;17.10;99.90;;;;;;5031566;28;20438;-49
2023/04/23 06:24:06;;;;;;;7.03;6.33;;;17.40;99.90;;;;;;5031415;28;20458;-48
2023/04/23 06:26:32;;;;;;;8.17;7.00;;;17.40;99.90;;;;;;5031846;28;20469;-49
2023/04/23 06:29:04;;;;;;;8.10;6.60;;;17.60;99.90;;;;;;5013394;28;20943;-49
2023/04/23 06:31:55;;;;;;;7.43;6.23;;;17.20;99.90;;;;;;5013813;28;20441;-47
2023/04/23 06:34:22;;;;;;;9.40;6.30;;;17.70;99.90;;;;;;5031390;28;20557;-49
2023/04/23 06:36:49;;;;;;;8.20;7.07;;;17.80;99.90;;;;;;5031426;28;20497;-48
2023/04/23 06:39:15;;;;;;;7.90;7.10;;;17.70;99.90;;;;;;5030950;28;20436;-50
2023/04/23 06:41:42;;;;;;;8.50;6.90;;;17.40;99.90;;;;;;5013522;28;20453;-49
2023/04/23 06:44:17;;;;;;;7.23;6.53;;;17.30;99.90;;;;;;5013540;28;20481;-49
2023/04/23 06:46:52;;;;;;;6.63;6.00;;;17.80;99.90;;;;;;5034130;28;20483;-48
2023/04/23 06:49:19;;;;;;;7.07;6.33;;;17.50;99.90;;;;;;5034570;28;20791;-49
2023/04/23 06:51:45;;;;;;;8.93;5.67;;;17.80;99.90;;;;;;5034805;28;20498;-49
2023/04/23 06:54:12;;;;;;;9.70;5.97;;;17.70;99.90;;;;;;5034822;28;20984;-49
2023/04/23 06:56:39;;;;;;;7.13;6.43;;;17.40;99.90;;;;;;5034630;28;20475;-49
2023/04/23 06:59:06;;;;;;;6.63;5.90;;;17.90;99.90;;;;;;5016515;28;20515;-49
2023/04/23 07:01:35;;;;;;;6.47;5.87;;;17.70;99.90;;;;;;5016912;28;20460;-49
2023/04/23 07:04:03;;;;;;;7.93;5.70;;;17.70;99.90;;;;;;5034515;28;21062;-49
2023/04/23 07:06:30;;;;;;;8.73;6.33;;;17.80;99.90;;;;;;5034554;28;20445;-49
2023/04/23 07:08:56;;;;;;;6.70;6.00;;;17.50;99.90;;;;;;5034436;28;20487;-49
2023/04/23 07:11:23;;;;;;;6.90;5.60;;;17.80;99.90;;;;;;5034350;28;20446;-50
2023/04/23 07:13:50;;;;;;;7.57;6.00;;;17.50;99.90;;;;;;5034470;28;20435;-50
2023/04/23 07:16:17;;;;;;;7.17;6.47;;;17.50;99.90;;;;;;5034468;28;20986;-49
2023/04/23 07:18:43;;;;;;;6.50;5.80;;;17.50;99.90;;;;;;5034356;28;20449;-49
2023/04/23 07:21:11;;;;;;;9.93;6.80;;;17.80;99.90;;;;;;5034729;28;20441;-50
2023/04/23 07:23:38;;;;;;;8.80;6.20;;;17.50;99.90;;;;;;5034870;28;20437;-49
2023/04/23 07:26:04;;;;;;;6.83;6.13;;;17.60;99.90;;;;;;5034567;28;20458;-49
2023/04/23 07:28:31;;;;;;;6.83;6.13;;;16.80;99.90;;;;;;5034451;28;20511;-49
2023/04/23 07:30:58;;;;;;;7.47;6.57;;;16.70;99.90;;;;;;5034717;28;20447;-48
2023/04/23 07:33:25;;;;;;;8.03;7.23;;;16.70;99.90;;;;;;5034436;28;20431;-49
2023/04/23 07:35:51;;;;;;;9.37;7.60;;;17.20;99.90;;;;;;5034438;28;21049;-50
2023/04/23 07:38:19;;;;;;;8.30;6.90;;;17.20;99.90;;;;;;5033479;28;20945;-50
2023/04/23 07:40:47;;;;;;;9.23;7.90;;;16.70;99.90;;;;;;5033882;28;20433;-49
2023/04/23 07:43:15;;;;;;;10.97;7.27;;;17.00;99.90;;;;;;5033824;28;20843;-49
2023/04/23 07:45:42;;;;;;;7.10;6.40;;;16.80;99.90;;;;;;5033587;28;20496;-48
2023/04/23 07:48:09;;;;;;;9.17;8.30;;;16.80;99.90;;;;;;5033200;28;20830;-50
2023/04/23 07:50:35;;;;;;;8.10;7.30;;;17.00;99.90;;;;;;5033820;28;20440;-49
2023/04/23 07:53:02;;;;;;;8.07;6.90;;;17.20;99.90;;;;;;5033634;28;20952;-50
2023/04/23 07:55:30;;;;;;;8.77;7.60;;;16.90;99.90;;;;;;5033251;28;20458;-49
2023/04/23 07:57:56;;;;;;;7.97;7.17;;;16.90;99.90;;;;;;5033160;28;20437;-49
2023/04/23 08:00:23;;;;;;;12.07;8.77;;;17.00;99.90;;;;;;5033467;28;20439;-49
2023/04/23 08:02:50;;;;;;;8.13;7.43;;;17.00;99.90;;;;;;5033657;28;20441;-49
2023/04/23 08:05:17;;;;;;;8.30;7.43;;;16.80;99.90;;;;;;5033929;28;20563;-49
2023/04/23 08:07:43;;;;;;;9.83;8.93;;;17.20;99.90;;;;;;5033344;28;20412;-48
2023/04/23 08:10:10;;;;;;;8.53;7.60;;;17.00;99.90;;;;;;5033114;28;20444;-49
2023/04/23 08:12:38;;;;;;;10.07;8.90;;;16.80;99.90;;;;;;5033389;28;20960;-49
2023/04/23 08:15:05;;;;;;;15.23;13.57;;;17.10;99.90;;;;;;5033045;28;20432;-49
2023/04/23 08:17:39;;;;;;;12.00;8.60;;;16.90;99.90;;;;;;5015581;28;20485;-50
2023/04/23 08:20:07;;;;;;;9.43;6.83;;;16.80;99.90;;;;;;5033233;28;20410;-49
2023/04/23 08:22:34;;;;;;;7.87;6.80;;;17.20;99.90;;;;;;5033458;28;20409;-50
2023/04/23 08:25:01;;;;;;;8.00;7.20;;;17.10;99.90;;;;;;5033883;28;20511;-50
2023/04/23 08:27:27;;;;;;;10.77;7.93;;;16.90;99.90;;;;;;5033379;28;20439;-49
2023/04/23 08:29:55;;;;;;;8.90;7.57;;;16.80;99.90;;;;;;5033237;28;20434;-49
2023/04/23 08:32:22;;;;;;;8.00;7.10;;;17.10;99.90;;;;;;5033599;28;20436;-49
2023/04/23 08:34:48;;;;;;;10.60;8.10;;;17.60;99.90;;;;;;5032989;28;20970;-49
2023/04/23 08:37:15;;;;;;;11.13;8.20;;;17.30;99.90;;;;;;5032551;28;20481;-49
2023/04/23 08:39:42;;;;;;;8.70;7.90;;;17.10;99.90;;;;;;5032980;28;20856;-49
2023/04/23 08:42:13;;;;;;;8.23;7.43;;;17.20;99.90;;;;;;5033074;28;20443;-49
2023/04/23 08:44:42;;;;;;;9.20;7.33;;;17.50;99.90;;;;;;5015351;28;20457;-49
2023/04/23 08:47:12;;;;;;;8.00;7.07;;;17.70;99.90;;;;;;5033160;28;20415;-49
2023/04/23 08:49:41;;;;;;;9.50;7.37;;;17.70;99.90;;;;;;5032549;28;20503;-49
2023/04/23 08:52:15;;;;;;;8.83;7.33;;;17.50;99.90;;;;;;5015122;28;20871;-48
2023/04/23 08:54:46;;;;;;;8.27;7.30;;;17.60;99.90;;;;;;5032273;28;20476;-49
2023/04/23 08:57:13;;;;;;;8.03;7.20;;;17.60;99.90;;;;;;5014858;28;20532;-48
2023/04/23 08:59:41;;;;;;;11.47;8.27;;;17.90;99.90;;;;;;5031891;28;20413;-49
2023/04/23 09:02:09;;;;;;;9.27;7.57;;;18.40;99.90;;;;;;5032481;28;20448;-49
2023/04/23 09:04:37;;;;;;;9.03;8.00;;;18.30;99.90;;;;;;5031884;28;20466;-49
2023/04/23 09:07:04;;;;;;;8.97;8.07;;;18.30;99.90;;;;;;5032152;28;20423;-49
2023/04/23 09:09:31;;;;;;;9.73;8.60;;;18.80;99.90;;;;;;5031491;28;20897;-50
2023/04/23 09:11:58;;;;;;;9.50;8.50;;;18.60;99.90;;;;;;5032060;28;20443;-49
2023/04/23 09:14:25;;;;;;;9.53;8.73;;;18.50;99.90;;;;;;5031962;28;20459;-50
2023/04/23 09:16:52;;;;;;;9.73;8.73;;;18.10;99.90;;;;;;5031890;28;20490;-49
2023/04/23 09:19:20;;;;;;;9.37;8.47;;;18.30;99.90;;;;;;5031593;28;20442;-49
2023/04/23 09:21:47;;;;;;;12.43;8.73;;;18.00;99.90;;;;;;5031900;28;20443;-49
2023/04/23 09:24:16;;;;;;;8.87;8.07;;;17.80;99.90;;;;;;5031913;28;20564;-49
2023/04/23 09:26:48;;;;;;;10.83;9.83;;;17.70;99.90;;;;;;5013901;28;21058;-50
2023/04/23 09:29:17;;;;;;;10.80;9.70;;;17.90;99.90;;;;;;5031570;28;20444;-50
2023/04/23 09:31:46;;;;;;;10.10;9.10;;;17.80;99.90;;;;;;5014172;28;20454;-49
2023/04/23 09:34:16;;;;;;;9.00;7.87;;;17.60;99.90;;;;;;5031663;28;20466;-50
2023/04/23 09:36:45;;;;;;;9.00;8.10;;;17.50;99.90;;;;;;5031984;28;20478;-48
2023/04/23 09:39:13;;;;;;;7.97;7.20;;;17.30;99.90;;;;;;5031573;28;20498;-49
2023/04/23 09:41:39;;;;;;;7.53;6.83;;;17.00;99.90;;;;;;5031980;28;20434;-49
2023/04/23 09:44:07;;;;;;;9.20;7.70;;;17.10;99.90;;;;;;5013826;28;20474;-49
2023/04/23 09:46:35;;;;;;;7.37;6.13;;;17.40;99.90;;;;;;5031891;28;20951;-49
2023/04/23 09:49:04;;;;;;;6.50;5.90;;;17.40;99.90;;;;;;5031473;28;20440;-49
2023/04/23 09:51:32;;;;;;;5.80;5.30;;;17.10;99.90;;;;;;5032050;28;20983;-49
2023/04/23 09:54:02;;;;;;;6.20;5.40;;;17.00;99.90;;;;;;5032127;28;20437;-49
2023/04/23 09:56:30;;;;;;;5.67;5.07;;;16.90;99.90;;;;;;5031791;28;20473;-49
2023/04/23 09:58:57;;;;;;;6.40;5.80;;;16.70;99.90;;;;;;5031065;28;20989;-50
2023/04/23 10:01:29;;;;;;;4.87;4.10;;;16.70;99.90;;;;;;5031653;28;20488;-50
2023/04/23 10:03:56;;;;;;;4.70;4.30;;;16.90;99.90;;;;;;5031657;28;20428;-50
2023/04/23 10:06:27;;;;;;;4.70;4.30;;;17.00;99.90;;;;;;5031379;28;20497;-50
2023/04/23 10:08:55;;;;;;;4.63;4.23;;;16.90;99.90;;;;;;5030898;28;20438;-50
2023/04/23 10:11:24;;;;;;;5.87;4.40;;;17.10;99.90;;;;;;5031492;28;20434;-50
2023/04/23 10:13:53;;;;;;;5.87;5.27;;;17.10;99.90;;;;;;5029626;28;20550;-50
2023/04/23 10:16:21;;;;;;;5.53;4.40;;;17.20;99.90;;;;;;5031669;28;20442;-50
2023/04/23 10:18:50;;;;;;;5.43;4.80;;;16.80;99.90;;;;;;5030925;28;20444;-49
2023/04/23 10:21:18;;;;;;;5.03;4.53;;;17.10;99.90;;;;;;5035259;28;20551;-49
2023/04/23 10:23:49;;;;;;;5.40;4.67;;;17.10;99.90;;;;;;5036678;28;20429;-49
2023/04/23 10:26:17;;;;;;;6.00;4.20;;;16.90;99.90;;;;;;5035725;28;20896;-49
2023/04/23 10:28:47;;;;;;;7.07;4.50;;;17.10;99.90;;;;;;5035739;28;20463;-49
2023/04/23 10:31:15;;;;;;;4.33;3.80;;;17.20;99.90;;;;;;5035791;28;20528;-49
2023/04/23 10:33:43;;;;;;;4.30;3.90;;;17.10;99.90;;;;;;5035722;28;20822;-49
2023/04/23 10:36:10;;;;;;;4.20;3.80;;;17.50;99.90;;;;;;5035102;28;20402;-48
2023/04/23 10:38:38;;;;;;;4.63;4.23;;;17.10;99.90;;;;;;5035009;28;20761;-48
2023/04/23 10:41:07;;;;;;;7.23;4.90;;;17.10;99.90;;;;;;5035265;28;20419;-49
2023/04/23 10:43:34;;;;;;;6.23;5.73;;;17.10;99.90;;;;;;5035294;28;20442;-49
2023/04/23 10:46:02;;;;;;;7.97;7.27;;;17.40;99.90;;;;;;5034469;28;20458;-49
2023/04/23 10:48:29;;;;;;;7.77;6.97;;;17.60;99.90;;;;;;5034644;28;20479;-49
2023/04/23 10:50:59;;;;;;;8.27;7.57;;;17.50;99.90;;;;;;5035012;28;20853;-49
2023/04/23 10:53:26;;;;;;;9.10;8.20;;;17.80;99.90;;;;;;5035203;28;20533;-49
2023/04/23 10:56:05;;;;;;;8.90;8.00;;;17.60;99.90;;;;;;5034614;28;20440;-49
2023/04/23 10:58:50;;;;;;;7.97;7.20;;;18.10;99.90;;;;;;5034051;28;20535;-49
2023/04/23 11:01:19;;;;;;;7.43;6.83;;;18.60;99.90;;;;;;5034432;28;20491;-49
2023/04/23 11:03:46;;;;;;;8.00;7.20;;;18.40;99.90;;;;;;5034253;28;20517;-49
2023/04/23 11:06:18;;;;;;;8.97;8.17;;;18.70;99.90;;;;;;5034245;28;20471;-49
2023/04/23 11:08:53;;;;;;;9.03;7.70;;;18.60;99.90;;;;;;5034019;28;20427;-49
2023/04/23 11:11:38;;;;;;;7.83;7.13;;;18.70;99.90;;;;;;5034410;28;20469;-49
2023/04/23 11:14:13;;;;;;;9.10;8.27;;;18.30;99.90;;;;;;5034193;28;21007;-50
2023/04/23 11:16:40;;;;;;;10.30;9.30;;;18.70;99.90;;;;;;5034505;28;20771;-50
2023/04/23 11:19:11;;;;;;;10.97;9.93;;;18.50;99.90;;;;;;5033944;28;20509;-49
2023/04/23 11:22:00;;;;;;;10.03;9.13;;;18.80;99.90;;;;;;5034235;28;20521;-49
2023/04/23 11:24:28;;;;;;;10.23;9.10;;;19.10;99.90;;;;;;5034178;28;20447;-49
2023/04/23 11:26:55;;;;;;;10.30;9.30;;;19.00;99.90;;;;;;5033857;28;20459;-50
2023/04/23 11:29:23;;;;;;;10.87;9.87;;;19.00;99.90;;;;;;5033806;28;20812;-50
2023/04/23 11:31:51;;;;;;;13.27;10.80;;;19.30;99.90;;;;;;5033225;28;20440;-49
2023/04/23 11:34:19;;;;;;;10.97;9.30;;;19.10;99.90;;;;;;5034004;28;20422;-49
2023/04/23 11:36:47;;;;;;;12.00;10.90;;;19.20;99.90;;;;;;5033571;28;20451;-49
2023/04/23 11:39:14;;;;;;;11.10;10.10;;;19.20;99.90;;;;;;5033657;28;20423;-50
2023/04/23 11:41:42;;;;;;;14.00;10.87;;;19.30;99.90;;;;;;5015949;28;20674;-48
2023/04/23 11:44:09;;;;;;;12.13;10.90;;;19.30;99.90;;;;;;5034150;28;20921;-48
2023/04/23 11:46:36;;;;;;;13.50;11.33;;;19.50;99.90;;;;;;5033565;28;20447;-49
2023/04/23 11:49:08;;;;;;;11.60;10.40;;;19.50;99.90;;;;;;5033577;28;20529;-49
2023/04/23 11:51:35;;;;;;;11.47;10.27;;;19.40;99.90;;;;;;5033902;28;20775;-48
2023/04/23 11:54:05;;;;;;;11.53;10.53;;;19.20;99.90;;;;;;5033105;28;21043;-50
2023/04/23 11:56:33;;;;;;;11.50;10.40;;;19.80;99.90;;;;;;5034058;28;20445;-49
2023/04/23 11:59:02;;;;;;;10.87;9.90;;;20.00;99.90;;;;;;5032961;28;20479;-49
2023/04/23 12:01:40;;;;;;;10.33;9.33;;;19.40;99.90;;;;;;5033676;28;20430;-48
2023/04/23 12:04:11;;;;;;;10.57;9.50;;;20.10;99.90;;;;;;5033080;28;20503;-49
2023/04/23 12:06:41;;;;;;;9.20;8.40;;;19.60;99.90;;;;;;5033394;28;20497;-49
2023/04/23 12:09:09;;;;;;;10.30;9.33;;;19.70;99.90;;;;;;5032821;28;21000;-49
2023/04/23 12:11:36;;;;;;;11.17;10.17;;;19.50;99.90;;;;;;5032910;28;20444;-49
2023/04/23 12:14:02;;;;;;;11.03;9.93;;;19.00;99.90;;;;;;5033106;28;20489;-50
2023/04/23 12:16:40;;;;;;;8.73;7.97;;;19.40;99.90;;;;;;5032387;28;20445;-50
2023/04/23 12:19:13;;;;;;;9.40;8.60;;;19.40;99.90;;;;;;5032842;28;20478;-50
2023/04/23 12:21:53;;;;;;;8.23;7.27;;;19.40;99.90;;;;;;5033148;28;20431;-50
2023/04/23 12:24:20;;;;;;;8.23;7.43;;;19.40;99.90;;;;;;5032012;28;20467;-49
2023/04/23 12:26:49;;;;;;;7.90;7.20;;;19.50;99.90;;;;;;5015421;28;20459;-50
2023/04/23 12:29:18;;;;;;;7.07;6.40;;;19.80;99.90;;;;;;5033710;28;20501;-49
2023/04/23 12:31:45;;;;;;;9.37;7.03;;;19.40;99.90;;;;;;5033963;28;20529;-48
2023/04/23 12:34:15;;;;;;;8.40;7.60;;;19.70;99.80;;;;;;5033187;28;20549;-49
2023/04/23 12:36:45;;;;;;;7.60;6.90;;;19.90;99.40;;;;;;5033324;28;20528;-49
2023/04/23 12:39:26;;;;;;;8.23;7.43;;;20.20;99.20;;;;;;5032378;28;20481;-49
2023/04/23 12:41:54;;;;;;;7.03;6.33;;;20.30;98.70;;;;;;5032472;28;20433;-50